sensor_id;sensor_type;location;lat;lon;timestamp;P1;durP1;ratioP1;P2;durP2;ratioP2
20056;SDS011;10189;49.546;7.906;2023-02-07T00:00:47;11.65;;;6.85;;
20056;SDS011;10189;49.546;7.906;2023-02-07T00:03:14;11.70;;;6.90;;
20056;SDS011;10189;49.546;7.906;2023-02-07T00:05:40;13.00;;;7.28;;
20056;SDS011;10189;49.546;7.906;2023-02-07T00:08:06;11.60;;;7.07;;
20056;SDS011;10189;49.546;7.906;2023-02-07T00:10:33;10.52;;;6.20;;
20056;SDS011;10189;49.546;7.906;2023-02-07T00:12:59;12.57;;;7.80;;
20056;SDS011;10189;49.546;7.906;2023-02-07T00:15:25;11.52;;;6.97;;
20056;SDS011;10189;49.546;7.906;2023-02-07T00:17:52;13.00;;;7.07;;
20056;SDS011;10189;49.546;7.906;2023-02-07T00:20:18;11.85;;;6.82;;
20056;SDS011;10189;49.546;7.906;2023-02-07T00:22:45;11.55;;;6.68;;
20056;SDS011;10189;49.546;7.906;2023-02-07T00:25:11;13.13;;;7.80;;
20056;SDS011;10189;49.546;7.906;2023-02-07T00:27:37;10.55;;;7.45;;
20056;SDS011;10189;49.546;7.906;2023-02-07T00:30:03;13.30;;;7.55;;
20056;SDS011;10189;49.546;7.906;2023-02-07T00:32:31;11.13;;;6.72;;
20056;SDS011;10189;49.546;7.906;2023-02-07T00:34:58;13.13;;;7.10;;
20056;SDS011;10189;49.546;7.906;2023-02-07T00:37:25;12.57;;;6.90;;
20056;SDS011;10189;49.546;7.906;2023-02-07T00:39:52;9.52;;;6.35;;
20056;SDS011;10189;49.546;7.906;2023-02-07T00:42:18;10.68;;;6.72;;
20056;SDS011;10189;49.546;7.906;2023-02-07T00:44:45;11.32;;;6.80;;
20056;SDS011;10189;49.546;7.906;2023-02-07T00:47:10;10.07;;;6.80;;
20056;SDS011;10189;49.546;7.906;2023-02-07T00:49:36;10.45;;;6.75;;
20056;SDS011;10189;49.546;7.906;2023-02-07T00:52:02;10.75;;;6.97;;
20056;SDS011;10189;49.546;7.906;2023-02-07T00:54:28;9.57;;;6.82;;
20056;SDS011;10189;49.546;7.906;2023-02-07T00:56:54;9.27;;;6.68;;
20056;SDS011;10189;49.546;7.906;2023-02-07T00:59:20;9.65;;;6.65;;
20056;SDS011;10189;49.546;7.906;2023-02-07T01:01:46;9.50;;;6.60;;
20056;SDS011;10189;49.546;7.906;2023-02-07T01:04:12;10.57;;;7.07;;
20056;SDS011;10189;49.546;7.906;2023-02-07T01:06:38;10.32;;;6.50;;
20056;SDS011;10189;49.546;7.906;2023-02-07T01:09:04;8.85;;;6.45;;
20056;SDS011;10189;49.546;7.906;2023-02-07T01:11:31;9.90;;;6.13;;
20056;SDS011;10189;49.546;7.906;2023-02-07T01:14:01;8.27;;;5.90;;
20056;SDS011;10189;49.546;7.906;2023-02-07T01:16:31;6.00;;;4.13;;
20056;SDS011;10189;49.546;7.906;2023-02-07T01:19:01;7.38;;;5.45;;
20056;SDS011;10189;49.546;7.906;2023-02-07T01:21:31;6.97;;;4.78;;
20056;SDS011;10189;49.546;7.906;2023-02-07T01:23:57;6.80;;;5.20;;
20056;SDS011;10189;49.546;7.906;2023-02-07T01:26:23;7.75;;;5.28;;
20056;SDS011;10189;49.546;7.906;2023-02-07T01:28:50;7.82;;;5.75;;
20056;SDS011;10189;49.546;7.906;2023-02-07T01:31:19;6.55;;;4.88;;
20056;SDS011;10189;49.546;7.906;2023-02-07T01:33:46;7.15;;;5.07;;
20056;SDS011;10189;49.546;7.906;2023-02-07T01:36:18;7.20;;;5.13;;
20056;SDS011;10189;49.546;7.906;2023-02-07T01:38:44;6.25;;;5.00;;
20056;SDS011;10189;49.546;7.906;2023-02-07T01:41:10;7.32;;;4.68;;
20056;SDS011;10189;49.546;7.906;2023-02-07T01:46:28;6.10;;;4.07;;
20056;SDS011;10189;49.546;7.906;2023-02-07T01:49:01;4.70;;;4.00;;
20056;SDS011;10189;49.546;7.906;2023-02-07T01:51:35;6.53;;;4.93;;
20056;SDS011;10189;49.546;7.906;2023-02-07T01:54:06;7.30;;;5.43;;
20056;SDS011;10189;49.546;7.906;2023-02-07T01:56:36;7.35;;;5.53;;
20056;SDS011;10189;49.546;7.906;2023-02-07T01:59:07;6.95;;;5.65;;
20056;SDS011;10189;49.546;7.906;2023-02-07T02:01:34;7.75;;;5.47;;
20056;SDS011;10189;49.546;7.906;2023-02-07T02:04:00;5.78;;;4.65;;
20056;SDS011;10189;49.546;7.906;2023-02-07T02:06:29;7.47;;;5.72;;
20056;SDS011;10189;49.546;7.906;2023-02-07T02:08:58;9.05;;;5.45;;
20056;SDS011;10189;49.546;7.906;2023-02-07T02:14:38;8.55;;;5.57;;
20056;SDS011;10189;49.546;7.906;2023-02-07T02:43:43;8.43;;;6.05;;
20056;SDS011;10189;49.546;7.906;2023-02-07T02:46:30;9.05;;;6.28;;
20056;SDS011;10189;49.546;7.906;2023-02-07T02:49:01;9.10;;;6.78;;
20056;SDS011;10189;49.546;7.906;2023-02-07T02:51:30;8.73;;;5.72;;
20056;SDS011;10189;49.546;7.906;2023-02-07T02:53:58;8.55;;;6.70;;
20056;SDS011;10189;49.546;7.906;2023-02-07T03:03:19;10.88;;;6.90;;
20056;SDS011;10189;49.546;7.906;2023-02-07T03:12:15;10.48;;;7.13;;
20056;SDS011;10189;49.546;7.906;2023-02-07T03:15:13;10.82;;;7.47;;
20056;SDS011;10189;49.546;7.906;2023-02-07T03:18:02;10.35;;;7.13;;
20056;SDS011;10189;49.546;7.906;2023-02-07T03:20:43;8.05;;;5.45;;
20056;SDS011;10189;49.546;7.906;2023-02-07T03:23:22;8.95;;;6.68;;
20056;SDS011;10189;49.546;7.906;2023-02-07T03:25:49;9.95;;;7.22;;
20056;SDS011;10189;49.546;7.906;2023-02-07T03:28:17;11.15;;;7.53;;
20056;SDS011;10189;49.546;7.906;2023-02-07T03:30:46;10.50;;;7.30;;
20056;SDS011;10189;49.546;7.906;2023-02-07T03:33:18;10.68;;;8.00;;
20056;SDS011;10189;49.546;7.906;2023-02-07T03:35:47;10.63;;;7.80;;
20056;SDS011;10189;49.546;7.906;2023-02-07T03:38:26;9.85;;;7.35;;
20056;SDS011;10189;49.546;7.906;2023-02-07T03:40:54;12.88;;;8.60;;
20056;SDS011;10189;49.546;7.906;2023-02-07T03:43:26;11.65;;;8.48;;
20056;SDS011;10189;49.546;7.906;2023-02-07T03:45:56;12.13;;;8.10;;
20056;SDS011;10189;49.546;7.906;2023-02-07T03:48:22;11.68;;;8.35;;
20056;SDS011;10189;49.546;7.906;2023-02-07T03:50:49;11.38;;;8.07;;
20056;SDS011;10189;49.546;7.906;2023-02-07T03:53:17;10.85;;;8.18;;
20056;SDS011;10189;49.546;7.906;2023-02-07T03:55:44;12.02;;;8.65;;
20056;SDS011;10189;49.546;7.906;2023-02-07T03:58:10;11.88;;;8.05;;
20056;SDS011;10189;49.546;7.906;2023-02-07T04:00:36;13.18;;;8.43;;
20056;SDS011;10189;49.546;7.906;2023-02-07T04:03:03;11.50;;;8.30;;
20056;SDS011;10189;49.546;7.906;2023-02-07T04:05:29;10.70;;;8.25;;
20056;SDS011;10189;49.546;7.906;2023-02-07T04:07:55;11.27;;;7.97;;
20056;SDS011;10189;49.546;7.906;2023-02-07T04:10:21;12.27;;;8.60;;
20056;SDS011;10189;49.546;7.906;2023-02-07T04:12:47;10.65;;;7.82;;
20056;SDS011;10189;49.546;7.906;2023-02-07T04:15:13;11.10;;;7.47;;
20056;SDS011;10189;49.546;7.906;2023-02-07T04:17:39;12.20;;;8.30;;
20056;SDS011;10189;49.546;7.906;2023-02-07T04:20:05;11.70;;;8.15;;
20056;SDS011;10189;49.546;7.906;2023-02-07T04:22:31;11.88;;;8.57;;
20056;SDS011;10189;49.546;7.906;2023-02-07T04:24:57;13.23;;;8.85;;
20056;SDS011;10189;49.546;7.906;2023-02-07T04:27:23;12.68;;;8.85;;
20056;SDS011;10189;49.546;7.906;2023-02-07T04:29:49;12.50;;;8.57;;
20056;SDS011;10189;49.546;7.906;2023-02-07T04:32:17;12.82;;;9.07;;
20056;SDS011;10189;49.546;7.906;2023-02-07T04:34:43;11.50;;;8.30;;
20056;SDS011;10189;49.546;7.906;2023-02-07T04:37:08;12.15;;;8.13;;
20056;SDS011;10189;49.546;7.906;2023-02-07T04:39:34;11.77;;;8.30;;
20056;SDS011;10189;49.546;7.906;2023-02-07T04:42:00;12.38;;;8.68;;
20056;SDS011;10189;49.546;7.906;2023-02-07T04:44:26;13.07;;;9.00;;
20056;SDS011;10189;49.546;7.906;2023-02-07T04:46:52;11.90;;;8.45;;
20056;SDS011;10189;49.546;7.906;2023-02-07T04:49:18;13.40;;;8.40;;
20056;SDS011;10189;49.546;7.906;2023-02-07T04:51:44;12.85;;;9.02;;
20056;SDS011;10189;49.546;7.906;2023-02-07T04:54:10;12.30;;;8.80;;
20056;SDS011;10189;49.546;7.906;2023-02-07T04:56:36;14.23;;;9.15;;
20056;SDS011;10189;49.546;7.906;2023-02-07T04:59:02;15.60;;;9.05;;
20056;SDS011;10189;49.546;7.906;2023-02-07T05:01:28;13.13;;;8.93;;
20056;SDS011;10189;49.546;7.906;2023-02-07T05:03:54;13.20;;;8.65;;
20056;SDS011;10189;49.546;7.906;2023-02-07T05:06:20;13.95;;;9.02;;
20056;SDS011;10189;49.546;7.906;2023-02-07T05:08:45;13.10;;;8.88;;
20056;SDS011;10189;49.546;7.906;2023-02-07T05:11:11;13.95;;;9.65;;
20056;SDS011;10189;49.546;7.906;2023-02-07T05:13:37;14.70;;;9.80;;
20056;SDS011;10189;49.546;7.906;2023-02-07T05:16:04;14.18;;;9.95;;
20056;SDS011;10189;49.546;7.906;2023-02-07T05:18:31;14.10;;;9.73;;
20056;SDS011;10189;49.546;7.906;2023-02-07T05:20:57;14.73;;;9.77;;
20056;SDS011;10189;49.546;7.906;2023-02-07T05:23:23;14.52;;;9.63;;
20056;SDS011;10189;49.546;7.906;2023-02-07T05:25:49;15.48;;;9.50;;
20056;SDS011;10189;49.546;7.906;2023-02-07T05:28:15;13.00;;;9.20;;
20056;SDS011;10189;49.546;7.906;2023-02-07T05:30:41;15.23;;;10.20;;
20056;SDS011;10189;49.546;7.906;2023-02-07T05:33:08;13.90;;;9.90;;
20056;SDS011;10189;49.546;7.906;2023-02-07T05:35:36;16.70;;;10.63;;
20056;SDS011;10189;49.546;7.906;2023-02-07T05:38:07;15.90;;;10.48;;
20056;SDS011;10189;49.546;7.906;2023-02-07T05:40:36;16.67;;;11.00;;
20056;SDS011;10189;49.546;7.906;2023-02-07T05:43:04;16.02;;;10.85;;
20056;SDS011;10189;49.546;7.906;2023-02-07T05:45:31;15.95;;;10.77;;
20056;SDS011;10189;49.546;7.906;2023-02-07T05:47:57;16.27;;;10.52;;
20056;SDS011;10189;49.546;7.906;2023-02-07T05:50:23;18.95;;;11.07;;
20056;SDS011;10189;49.546;7.906;2023-02-07T05:53:02;22.55;;;14.75;;
20056;SDS011;10189;49.546;7.906;2023-02-07T05:55:29;20.13;;;11.90;;
20056;SDS011;10189;49.546;7.906;2023-02-07T05:57:55;17.48;;;12.00;;
20056;SDS011;10189;49.546;7.906;2023-02-07T06:00:22;18.65;;;11.88;;
20056;SDS011;10189;49.546;7.906;2023-02-07T06:02:48;19.73;;;12.55;;
20056;SDS011;10189;49.546;7.906;2023-02-07T06:05:14;17.88;;;12.05;;
20056;SDS011;10189;49.546;7.906;2023-02-07T06:07:44;21.67;;;12.45;;
20056;SDS011;10189;49.546;7.906;2023-02-07T06:10:11;19.13;;;13.05;;
20056;SDS011;10189;49.546;7.906;2023-02-07T06:12:38;19.85;;;12.30;;
20056;SDS011;10189;49.546;7.906;2023-02-07T06:15:04;22.00;;;13.70;;
20056;SDS011;10189;49.546;7.906;2023-02-07T06:17:31;21.10;;;12.90;;
20056;SDS011;10189;49.546;7.906;2023-02-07T06:19:57;21.05;;;12.68;;
20056;SDS011;10189;49.546;7.906;2023-02-07T06:22:22;19.75;;;12.85;;
20056;SDS011;10189;49.546;7.906;2023-02-07T06:24:49;21.30;;;13.32;;
20056;SDS011;10189;49.546;7.906;2023-02-07T06:27:14;27.45;;;15.23;;
20056;SDS011;10189;49.546;7.906;2023-02-07T06:29:40;23.08;;;14.10;;
20056;SDS011;10189;49.546;7.906;2023-02-07T06:32:06;23.35;;;13.52;;
20056;SDS011;10189;49.546;7.906;2023-02-07T06:34:32;23.67;;;15.43;;
20056;SDS011;10189;49.546;7.906;2023-02-07T06:36:58;23.58;;;13.98;;
20056;SDS011;10189;49.546;7.906;2023-02-07T06:39:24;23.52;;;14.93;;
20056;SDS011;10189;49.546;7.906;2023-02-07T06:41:49;22.85;;;14.50;;
20056;SDS011;10189;49.546;7.906;2023-02-07T06:44:15;23.60;;;14.23;;
20056;SDS011;10189;49.546;7.906;2023-02-07T06:46:41;23.63;;;15.07;;
20056;SDS011;10189;49.546;7.906;2023-02-07T06:49:07;23.65;;;14.90;;
20056;SDS011;10189;49.546;7.906;2023-02-07T06:51:35;29.20;;;17.67;;
20056;SDS011;10189;49.546;7.906;2023-02-07T06:54:00;31.45;;;20.60;;
20056;SDS011;10189;49.546;7.906;2023-02-07T06:56:32;27.90;;;17.05;;
20056;SDS011;10189;49.546;7.906;2023-02-07T06:58:58;46.85;;;28.67;;
20056;SDS011;10189;49.546;7.906;2023-02-07T07:01:23;24.77;;;15.38;;
20056;SDS011;10189;49.546;7.906;2023-02-07T07:03:49;27.60;;;16.33;;
20056;SDS011;10189;49.546;7.906;2023-02-07T07:06:16;24.63;;;15.15;;
20056;SDS011;10189;49.546;7.906;2023-02-07T07:08:42;26.52;;;15.75;;
20056;SDS011;10189;49.546;7.906;2023-02-07T07:11:08;27.55;;;14.73;;
20056;SDS011;10189;49.546;7.906;2023-02-07T07:13:34;23.45;;;15.07;;
20056;SDS011;10189;49.546;7.906;2023-02-07T07:16:00;32.25;;;15.63;;
20056;SDS011;10189;49.546;7.906;2023-02-07T07:18:26;22.80;;;14.80;;
20056;SDS011;10189;49.546;7.906;2023-02-07T07:20:52;25.00;;;15.55;;
20056;SDS011;10189;49.546;7.906;2023-02-07T07:23:19;26.50;;;15.40;;
20056;SDS011;10189;49.546;7.906;2023-02-07T07:25:45;28.13;;;15.52;;
20056;SDS011;10189;49.546;7.906;2023-02-07T07:28:11;28.35;;;16.65;;
20056;SDS011;10189;49.546;7.906;2023-02-07T07:30:37;26.77;;;16.45;;
20056;SDS011;10189;49.546;7.906;2023-02-07T07:33:03;28.83;;;15.68;;
20056;SDS011;10189;49.546;7.906;2023-02-07T07:35:29;27.70;;;16.27;;
20056;SDS011;10189;49.546;7.906;2023-02-07T07:37:55;30.13;;;16.35;;
20056;SDS011;10189;49.546;7.906;2023-02-07T07:40:21;26.63;;;16.08;;
20056;SDS011;10189;49.546;7.906;2023-02-07T07:42:46;30.55;;;16.85;;
20056;SDS011;10189;49.546;7.906;2023-02-07T07:45:22;29.73;;;16.38;;
20056;SDS011;10189;49.546;7.906;2023-02-07T07:47:48;24.75;;;15.15;;
20056;SDS011;10189;49.546;7.906;2023-02-07T07:50:14;26.27;;;15.82;;
20056;SDS011;10189;49.546;7.906;2023-02-07T07:52:39;24.30;;;15.07;;
20056;SDS011;10189;49.546;7.906;2023-02-07T07:55:07;27.85;;;15.23;;
20056;SDS011;10189;49.546;7.906;2023-02-07T07:57:34;24.23;;;15.68;;
20056;SDS011;10189;49.546;7.906;2023-02-07T08:00:00;26.10;;;15.65;;
20056;SDS011;10189;49.546;7.906;2023-02-07T08:02:27;36.03;;;20.75;;
20056;SDS011;10189;49.546;7.906;2023-02-07T08:04:53;26.55;;;15.70;;
20056;SDS011;10189;49.546;7.906;2023-02-07T08:07:19;31.80;;;17.52;;
20056;SDS011;10189;49.546;7.906;2023-02-07T08:09:45;24.42;;;15.68;;
20056;SDS011;10189;49.546;7.906;2023-02-07T08:12:10;30.88;;;16.50;;
20056;SDS011;10189;49.546;7.906;2023-02-07T08:14:36;28.65;;;16.45;;
20056;SDS011;10189;49.546;7.906;2023-02-07T08:17:02;27.38;;;15.18;;
20056;SDS011;10189;49.546;7.906;2023-02-07T08:19:28;34.00;;;19.20;;
20056;SDS011;10189;49.546;7.906;2023-02-07T08:21:54;58.65;;;36.08;;
20056;SDS011;10189;49.546;7.906;2023-02-07T08:24:20;24.98;;;16.27;;
20056;SDS011;10189;49.546;7.906;2023-02-07T08:26:46;24.98;;;15.82;;
20056;SDS011;10189;49.546;7.906;2023-02-07T08:29:11;24.63;;;15.27;;
20056;SDS011;10189;49.546;7.906;2023-02-07T08:31:37;26.17;;;16.38;;
20056;SDS011;10189;49.546;7.906;2023-02-07T08:34:03;25.77;;;17.83;;
20056;SDS011;10189;49.546;7.906;2023-02-07T08:36:30;27.65;;;18.05;;
20056;SDS011;10189;49.546;7.906;2023-02-07T08:38:56;58.38;;;41.70;;
20056;SDS011;10189;49.546;7.906;2023-02-07T08:41:21;27.50;;;17.80;;
20056;SDS011;10189;49.546;7.906;2023-02-07T08:43:47;29.60;;;19.88;;
20056;SDS011;10189;49.546;7.906;2023-02-07T08:46:13;29.70;;;18.17;;
20056;SDS011;10189;49.546;7.906;2023-02-07T08:48:39;25.58;;;16.48;;
20056;SDS011;10189;49.546;7.906;2023-02-07T08:51:06;26.05;;;17.23;;
20056;SDS011;10189;49.546;7.906;2023-02-07T08:53:33;30.45;;;22.10;;
20056;SDS011;10189;49.546;7.906;2023-02-07T08:56:00;28.33;;;21.00;;
20056;SDS011;10189;49.546;7.906;2023-02-07T08:58:26;32.08;;;19.75;;
20056;SDS011;10189;49.546;7.906;2023-02-07T09:00:52;29.95;;;20.90;;
20056;SDS011;10189;49.546;7.906;2023-02-07T09:03:18;27.23;;;18.75;;
20056;SDS011;10189;49.546;7.906;2023-02-07T09:05:44;25.20;;;17.38;;
20056;SDS011;10189;49.546;7.906;2023-02-07T09:08:11;29.02;;;17.42;;
20056;SDS011;10189;49.546;7.906;2023-02-07T09:10:37;24.02;;;17.15;;
20056;SDS011;10189;49.546;7.906;2023-02-07T09:13:03;26.80;;;17.48;;
20056;SDS011;10189;49.546;7.906;2023-02-07T09:15:29;28.23;;;18.17;;
20056;SDS011;10189;49.546;7.906;2023-02-07T09:17:55;26.98;;;17.67;;
20056;SDS011;10189;49.546;7.906;2023-02-07T09:20:21;26.73;;;17.92;;
20056;SDS011;10189;49.546;7.906;2023-02-07T09:22:46;28.20;;;18.13;;
20056;SDS011;10189;49.546;7.906;2023-02-07T09:25:31;24.92;;;17.77;;
20056;SDS011;10189;49.546;7.906;2023-02-07T09:27:57;29.55;;;17.88;;
20056;SDS011;10189;49.546;7.906;2023-02-07T09:30:22;26.40;;;17.25;;
20056;SDS011;10189;49.546;7.906;2023-02-07T09:32:48;25.10;;;16.77;;
20056;SDS011;10189;49.546;7.906;2023-02-07T09:35:14;24.73;;;16.75;;
20056;SDS011;10189;49.546;7.906;2023-02-07T09:37:40;24.55;;;17.25;;
20056;SDS011;10189;49.546;7.906;2023-02-07T09:40:06;26.27;;;18.27;;
20056;SDS011;10189;49.546;7.906;2023-02-07T09:45:29;24.60;;;16.27;;
20056;SDS011;10189;49.546;7.906;2023-02-07T09:48:03;24.90;;;16.77;;
20056;SDS011;10189;49.546;7.906;2023-02-07T09:51:02;24.10;;;16.80;;
20056;SDS011;10189;49.546;7.906;2023-02-07T09:54:10;25.42;;;16.83;;
20056;SDS011;10189;49.546;7.906;2023-02-07T09:56:32;24.63;;;18.27;;
20056;SDS011;10189;49.546;7.906;2023-02-07T09:59:20;26.52;;;17.38;;
20056;SDS011;10189;49.546;7.906;2023-02-07T10:02:00;27.23;;;17.42;;
20056;SDS011;10189;49.546;7.906;2023-02-07T10:04:44;25.95;;;17.52;;
20056;SDS011;10189;49.546;7.906;2023-02-07T10:07:15;25.70;;;15.73;;
20056;SDS011;10189;49.546;7.906;2023-02-07T10:09:42;24.50;;;16.98;;
20056;SDS011;10189;49.546;7.906;2023-02-07T10:12:16;26.48;;;17.73;;
20056;SDS011;10189;49.546;7.906;2023-02-07T10:20:56;23.55;;;17.13;;
20056;SDS011;10189;49.546;7.906;2023-02-07T10:31:38;43.67;;;26.60;;
20056;SDS011;10189;49.546;7.906;2023-02-07T10:34:17;28.02;;;19.25;;
20056;SDS011;10189;49.546;7.906;2023-02-07T10:36:52;22.20;;;14.20;;
20056;SDS011;10189;49.546;7.906;2023-02-07T10:39:30;21.10;;;14.93;;
20056;SDS011;10189;49.546;7.906;2023-02-07T10:42:08;19.48;;;12.93;;
20056;SDS011;10189;49.546;7.906;2023-02-07T10:44:41;20.55;;;13.50;;
20056;SDS011;10189;49.546;7.906;2023-02-07T10:47:12;17.88;;;12.98;;
20056;SDS011;10189;49.546;7.906;2023-02-07T10:49:41;18.63;;;12.48;;
20056;SDS011;10189;49.546;7.906;2023-02-07T10:54:57;20.00;;;12.40;;
20056;SDS011;10189;49.546;7.906;2023-02-07T10:57:29;18.30;;;12.73;;
20056;SDS011;10189;49.546;7.906;2023-02-07T11:00:42;20.27;;;13.77;;
20056;SDS011;10189;49.546;7.906;2023-02-07T11:03:05;19.33;;;13.77;;
20056;SDS011;10189;49.546;7.906;2023-02-07T11:05:39;14.45;;;9.57;;
20056;SDS011;10189;49.546;7.906;2023-02-07T11:10:54;17.98;;;13.07;;
20056;SDS011;10189;49.546;7.906;2023-02-07T11:13:27;15.88;;;11.65;;
20056;SDS011;10189;49.546;7.906;2023-02-07T11:18:32;19.65;;;12.73;;
20056;SDS011;10189;49.546;7.906;2023-02-07T11:21:22;18.08;;;12.15;;
20056;SDS011;10189;49.546;7.906;2023-02-07T11:24:06;14.40;;;9.60;;
20056;SDS011;10189;49.546;7.906;2023-02-07T11:26:53;18.67;;;12.57;;
20056;SDS011;10189;49.546;7.906;2023-02-07T11:29:24;16.88;;;12.27;;
20056;SDS011;10189;49.546;7.906;2023-02-07T11:31:51;17.27;;;12.60;;
20056;SDS011;10189;49.546;7.906;2023-02-07T11:37:17;19.02;;;12.68;;
20056;SDS011;10189;49.546;7.906;2023-02-07T11:42:43;21.38;;;14.52;;
20056;SDS011;10189;49.546;7.906;2023-02-07T11:45:17;19.90;;;15.05;;
20056;SDS011;10189;49.546;7.906;2023-02-07T11:47:47;21.63;;;13.30;;
20056;SDS011;10189;49.546;7.906;2023-02-07T11:50:24;20.95;;;13.13;;
20056;SDS011;10189;49.546;7.906;2023-02-07T11:53:03;22.83;;;13.60;;
20056;SDS011;10189;49.546;7.906;2023-02-07T11:55:34;34.08;;;20.25;;
20056;SDS011;10189;49.546;7.906;2023-02-07T11:58:09;28.20;;;20.00;;
20056;SDS011;10189;49.546;7.906;2023-02-07T12:00:55;37.75;;;25.70;;
20056;SDS011;10189;49.546;7.906;2023-02-07T12:03:25;20.10;;;12.73;;
20056;SDS011;10189;49.546;7.906;2023-02-07T12:06:02;18.55;;;13.45;;
20056;SDS011;10189;49.546;7.906;2023-02-07T12:08:31;19.05;;;12.93;;
20056;SDS011;10189;49.546;7.906;2023-02-07T12:11:01;14.57;;;10.93;;
20056;SDS011;10189;49.546;7.906;2023-02-07T12:13:56;23.45;;;13.75;;
20056;SDS011;10189;49.546;7.906;2023-02-07T12:16:32;20.33;;;13.30;;
20056;SDS011;10189;49.546;7.906;2023-02-07T12:19:06;21.35;;;13.50;;
20056;SDS011;10189;49.546;7.906;2023-02-07T12:21:41;19.88;;;13.95;;
20056;SDS011;10189;49.546;7.906;2023-02-07T12:24:33;19.70;;;13.50;;
20056;SDS011;10189;49.546;7.906;2023-02-07T12:27:15;25.13;;;15.45;;
20056;SDS011;10189;49.546;7.906;2023-02-07T12:35:51;20.15;;;13.18;;
20056;SDS011;10189;49.546;7.906;2023-02-07T12:41:24;21.08;;;14.48;;
20056;SDS011;10189;49.546;7.906;2023-02-07T12:44:03;19.05;;;13.60;;
20056;SDS011;10189;49.546;7.906;2023-02-07T12:46:57;19.08;;;13.00;;
20056;SDS011;10189;49.546;7.906;2023-02-07T12:49:58;23.70;;;13.30;;
20056;SDS011;10189;49.546;7.906;2023-02-07T13:16:04;19.92;;;13.18;;
20056;SDS011;10189;49.546;7.906;2023-02-07T13:24:41;19.42;;;13.30;;
20056;SDS011;10189;49.546;7.906;2023-02-07T13:27:11;18.75;;;12.80;;
20056;SDS011;10189;49.546;7.906;2023-02-07T13:29:45;16.92;;;12.55;;
20056;SDS011;10189;49.546;7.906;2023-02-07T13:32:19;18.90;;;12.68;;
20056;SDS011;10189;49.546;7.906;2023-02-07T13:41:08;20.35;;;13.35;;
20056;SDS011;10189;49.546;7.906;2023-02-07T13:47:05;20.30;;;13.90;;
20056;SDS011;10189;49.546;7.906;2023-02-07T13:49:49;18.73;;;13.27;;
20056;SDS011;10189;49.546;7.906;2023-02-07T13:57:57;19.23;;;12.83;;
20056;SDS011;10189;49.546;7.906;2023-02-07T14:03:38;21.70;;;13.20;;
20056;SDS011;10189;49.546;7.906;2023-02-07T14:06:14;30.90;;;21.63;;
20056;SDS011;10189;49.546;7.906;2023-02-07T14:08:56;35.30;;;25.30;;
20056;SDS011;10189;49.546;7.906;2023-02-07T14:17:04;17.33;;;12.15;;
20056;SDS011;10189;49.546;7.906;2023-02-07T14:33:16;42.38;;;26.73;;
20056;SDS011;10189;49.546;7.906;2023-02-07T14:36:04;19.98;;;14.00;;
20056;SDS011;10189;49.546;7.906;2023-02-07T14:38:39;21.45;;;13.70;;
20056;SDS011;10189;49.546;7.906;2023-02-07T14:41:44;17.60;;;11.90;;
20056;SDS011;10189;49.546;7.906;2023-02-07T14:47:02;24.30;;;14.68;;
20056;SDS011;10189;49.546;7.906;2023-02-07T14:49:36;14.52;;;9.32;;
20056;SDS011;10189;49.546;7.906;2023-02-07T14:52:21;32.85;;;19.27;;
20056;SDS011;10189;49.546;7.906;2023-02-07T15:03:16;19.00;;;13.75;;
20056;SDS011;10189;49.546;7.906;2023-02-07T15:06:00;49.28;;;29.27;;
20056;SDS011;10189;49.546;7.906;2023-02-07T15:08:32;38.90;;;23.50;;
20056;SDS011;10189;49.546;7.906;2023-02-07T15:11:03;25.00;;;15.10;;
20056;SDS011;10189;49.546;7.906;2023-02-07T15:13:38;31.90;;;21.15;;
20056;SDS011;10189;49.546;7.906;2023-02-07T15:16:23;19.63;;;13.27;;
20056;SDS011;10189;49.546;7.906;2023-02-07T15:19:01;26.67;;;15.82;;
20056;SDS011;10189;49.546;7.906;2023-02-07T15:21:43;22.73;;;14.18;;
20056;SDS011;10189;49.546;7.906;2023-02-07T15:27:02;50.97;;;30.73;;
20056;SDS011;10189;49.546;7.906;2023-02-07T15:29:32;28.92;;;18.27;;
20056;SDS011;10189;49.546;7.906;2023-02-07T15:32:15;33.45;;;23.02;;
20056;SDS011;10189;49.546;7.906;2023-02-07T15:34:54;23.50;;;16.40;;
20056;SDS011;10189;49.546;7.906;2023-02-07T15:37:48;70.28;;;43.83;;
20056;SDS011;10189;49.546;7.906;2023-02-07T15:40:15;19.67;;;14.00;;
20056;SDS011;10189;49.546;7.906;2023-02-07T15:42:52;21.38;;;13.50;;
20056;SDS011;10189;49.546;7.906;2023-02-07T15:48:04;20.42;;;13.65;;
20056;SDS011;10189;49.546;7.906;2023-02-07T15:50:39;18.85;;;13.13;;
20056;SDS011;10189;49.546;7.906;2023-02-07T15:53:05;19.40;;;13.57;;
20056;SDS011;10189;49.546;7.906;2023-02-07T15:58:16;22.58;;;14.68;;
20056;SDS011;10189;49.546;7.906;2023-02-07T16:00:43;19.30;;;12.98;;
20056;SDS011;10189;49.546;7.906;2023-02-07T16:03:20;17.50;;;12.75;;
20056;SDS011;10189;49.546;7.906;2023-02-07T16:08:48;21.02;;;13.90;;
20056;SDS011;10189;49.546;7.906;2023-02-07T16:19:25;22.23;;;13.73;;
20056;SDS011;10189;49.546;7.906;2023-02-07T16:21:58;20.50;;;13.30;;
20056;SDS011;10189;49.546;7.906;2023-02-07T16:24:37;18.08;;;12.82;;
20056;SDS011;10189;49.546;7.906;2023-02-07T16:27:08;23.10;;;14.20;;
20056;SDS011;10189;49.546;7.906;2023-02-07T16:29:45;20.90;;;13.65;;
20056;SDS011;10189;49.546;7.906;2023-02-07T16:32:12;19.65;;;14.05;;
20056;SDS011;10189;49.546;7.906;2023-02-07T16:34:38;20.02;;;13.60;;
20056;SDS011;10189;49.546;7.906;2023-02-07T16:37:04;20.25;;;13.43;;
20056;SDS011;10189;49.546;7.906;2023-02-07T16:39:31;19.42;;;13.30;;
20056;SDS011;10189;49.546;7.906;2023-02-07T16:42:07;21.98;;;14.60;;
20056;SDS011;10189;49.546;7.906;2023-02-07T16:44:40;17.70;;;12.85;;
20056;SDS011;10189;49.546;7.906;2023-02-07T16:47:06;20.27;;;13.60;;
20056;SDS011;10189;49.546;7.906;2023-02-07T16:49:33;21.80;;;13.95;;
20056;SDS011;10189;49.546;7.906;2023-02-07T16:51:59;23.70;;;14.18;;
20056;SDS011;10189;49.546;7.906;2023-02-07T16:54:25;19.25;;;13.10;;
20056;SDS011;10189;49.546;7.906;2023-02-07T16:56:51;23.50;;;16.75;;
20056;SDS011;10189;49.546;7.906;2023-02-07T16:59:21;21.73;;;14.60;;
20056;SDS011;10189;49.546;7.906;2023-02-07T17:01:49;21.60;;;16.08;;
20056;SDS011;10189;49.546;7.906;2023-02-07T17:04:17;18.73;;;13.45;;
20056;SDS011;10189;49.546;7.906;2023-02-07T17:06:44;18.85;;;13.35;;
20056;SDS011;10189;49.546;7.906;2023-02-07T17:09:17;21.65;;;14.90;;
20056;SDS011;10189;49.546;7.906;2023-02-07T17:11:47;21.38;;;13.70;;
20056;SDS011;10189;49.546;7.906;2023-02-07T17:14:13;20.58;;;13.65;;
20056;SDS011;10189;49.546;7.906;2023-02-07T17:16:39;33.13;;;21.48;;
20056;SDS011;10189;49.546;7.906;2023-02-07T17:19:09;35.33;;;20.05;;
20056;SDS011;10189;49.546;7.906;2023-02-07T17:21:42;24.80;;;14.77;;
20056;SDS011;10189;49.546;7.906;2023-02-07T17:24:10;25.48;;;17.52;;
20056;SDS011;10189;49.546;7.906;2023-02-07T17:26:36;22.30;;;14.50;;
20056;SDS011;10189;49.546;7.906;2023-02-07T17:29:04;25.80;;;15.95;;
20056;SDS011;10189;49.546;7.906;2023-02-07T17:31:31;22.45;;;13.73;;
20056;SDS011;10189;49.546;7.906;2023-02-07T17:33:57;25.45;;;15.02;;
20056;SDS011;10189;49.546;7.906;2023-02-07T17:36:23;31.35;;;20.05;;
20056;SDS011;10189;49.546;7.906;2023-02-07T17:38:49;20.67;;;13.73;;
20056;SDS011;10189;49.546;7.906;2023-02-07T17:41:16;28.38;;;16.85;;
20056;SDS011;10189;49.546;7.906;2023-02-07T17:43:44;32.53;;;20.80;;
20056;SDS011;10189;49.546;7.906;2023-02-07T17:48:45;20.83;;;15.52;;
20056;SDS011;10189;49.546;7.906;2023-02-07T17:51:16;67.70;;;40.15;;